Time;durP1;ratioP1;P1;durP2;ratioP2;P2;SDS_P1;SDS_P2;PMS_P1;PMS_P2;Temp;Humidity;BMP_temperature;BMP_pressure;BME280_temperature;BME280_humidity;BME280_pressure;Samples;Min_cycle;Max_cycle;Signal;HPM_P1;HPM_P2
2022/10/24 00:00:42;;;;;;;28.38;14.35;;;26.30;99.90;;;;;;5033048;28;20111;-65
2022/10/24 00:03:10;;;;;;;26.25;15.55;;;26.20;99.90;;;;;;5034217;28;20021;-66
2022/10/24 00:05:40;;;;;;;103.50;59.17;;;26.20;99.90;;;;;;5033239;28;20529;-64
2022/10/24 00:08:06;;;;;;;51.25;31.73;;;26.30;99.90;;;;;;5031885;28;20037;-62
2022/10/24 00:10:33;;;;;;;29.85;18.77;;;26.40;99.90;;;;;;5034453;28;20355;-67
2022/10/24 00:12:59;;;;;;;31.38;15.75;;;26.40;99.90;;;;;;5033865;28;20026;-64
2022/10/24 00:15:26;;;;;;;67.97;46.63;;;26.40;99.90;;;;;;5033874;28;20025;-65
2022/10/24 00:17:52;;;;;;;50.13;17.70;;;26.30;99.90;;;;;;5034082;28;20025;-64
2022/10/24 00:20:19;;;;;;;27.42;16.88;;;26.20;99.90;;;;;;5033932;28;20026;-64
2022/10/24 00:22:46;;;;;;;35.65;19.42;;;26.20;99.90;;;;;;5034032;28;20100;-66
2022/10/24 00:25:13;;;;;;;30.58;18.27;;;26.20;99.90;;;;;;5022297;28;20148;-64
2022/10/24 00:27:39;;;;;;;67.25;44.05;;;26.30;99.90;;;;;;5024382;28;20072;-66
2022/10/24 00:30:06;;;;;;;41.63;26.35;;;26.40;99.90;;;;;;5023437;28;20022;-62
2022/10/24 00:32:33;;;;;;;35.58;19.55;;;26.40;99.90;;;;;;5027000;28;20397;-65
2022/10/24 00:34:59;;;;;;;47.42;23.50;;;26.50;99.90;;;;;;5031379;28;20033;-64
2022/10/24 00:37:26;;;;;;;36.78;24.92;;;26.50;99.90;;;;;;5032689;28;20037;-59
2022/10/24 00:39:53;;;;;;;42.13;27.70;;;26.50;99.90;;;;;;5030968;28;20463;-64
2022/10/24 00:42:20;;;;;;;42.15;23.30;;;26.60;99.90;;;;;;5033504;28;20113;-69
2022/10/24 00:44:51;;;;;;;37.83;22.23;;;26.60;99.90;;;;;;5033764;28;20057;-59
2022/10/24 00:47:21;;;;;;;35.47;22.83;;;26.70;99.90;;;;;;5033627;28;20017;-63
2022/10/24 00:50:11;;;;;;;38.58;19.98;;;26.80;99.90;;;;;;5028628;28;20548;-65
2022/10/24 00:52:43;;;;;;;59.95;42.58;;;26.90;99.90;;;;;;4972207;28;20041;-65
2022/10/24 00:55:13;;;;;;;40.10;20.20;;;26.90;99.90;;;;;;4970411;28;20037;-64
2022/10/24 00:57:41;;;;;;;31.10;18.85;;;27.00;99.90;;;;;;4972183;28;20063;-64
2022/10/24 01:00:29;;;;;;;26.77;15.43;;;27.00;99.90;;;;;;4969916;28;20026;-64
2022/10/24 01:02:56;;;;;;;29.15;14.45;;;27.10;99.90;;;;;;4971066;28;20448;-67
2022/10/24 01:05:28;;;;;;;26.92;14.20;;;27.10;99.90;;;;;;4972652;28;20037;-67
2022/10/24 01:08:25;;;;;;;22.30;11.67;;;27.20;99.90;;;;;;4972450;28;20035;-70
2022/10/24 01:11:20;;;;;;;23.48;12.48;;;27.20;99.90;;;;;;4986507;28;20268;-72
2022/10/24 01:14:25;;;;;;;15.35;10.70;;;27.20;99.90;;;;;;4991799;28;20133;-66
2022/10/24 01:16:58;;;;;;;19.05;10.80;;;27.30;99.90;;;;;;4994081;28;20054;-65
2022/10/24 01:19:41;;;;;;;20.80;10.82;;;27.40;99.90;;;;;;4995678;28;20033;-65
2022/10/24 01:22:18;;;;;;;20.23;10.88;;;27.40;99.90;;;;;;4995844;28;20033;-65
2022/10/24 01:25:24;;;;;;;15.63;11.27;;;27.40;99.90;;;;;;4995980;28;20033;-67
2022/10/24 01:28:22;;;;;;;17.50;12.40;;;27.50;99.90;;;;;;4996814;28;20034;-66
2022/10/24 01:30:56;;;;;;;20.08;12.35;;;27.60;99.90;;;;;;5057477;28;20037;-65
2022/10/24 01:33:32;;;;;;;18.40;13.60;;;27.70;99.90;;;;;;5058104;28;20478;-67
2022/10/24 01:36:05;;;;;;;18.92;11.55;;;27.70;99.90;;;;;;5057716;28;20048;-67
2022/10/24 01:38:36;;;;;;;16.92;12.25;;;27.80;99.90;;;;;;5057474;28;20029;-67
2022/10/24 01:41:11;;;;;;;20.33;12.75;;;27.90;99.90;;;;;;5057794;28;20040;-66
2022/10/24 01:43:50;;;;;;;23.88;15.02;;;28.00;99.90;;;;;;5057489;28;20025;-67
2022/10/24 01:46:24;;;;;;;21.90;11.40;;;28.10;99.90;;;;;;5057890;28;20021;-66
2022/10/24 01:48:59;;;;;;;17.17;10.80;;;28.10;99.90;;;;;;5057643;28;20029;-65
2022/10/24 01:51:31;;;;;;;14.57;10.45;;;28.10;99.90;;;;;;5057646;28;20049;-63
2022/10/24 01:53:58;;;;;;;17.63;10.13;;;28.20;99.90;;;;;;5057336;28;20471;-63
2022/10/24 01:56:26;;;;;;;17.65;12.13;;;28.30;99.90;;;;;;5057227;28;20040;-65
2022/10/24 01:59:02;;;;;;;17.00;11.93;;;28.40;99.90;;;;;;5056526;28;20032;-65
2022/10/24 02:01:30;;;;;;;18.15;10.38;;;28.50;99.90;;;;;;5056361;28;20021;-66
2022/10/24 02:04:01;;;;;;;17.15;8.68;;;28.50;99.90;;;;;;5055874;28;20466;-67
2022/10/24 02:06:35;;;;;;;17.63;12.80;;;28.50;99.90;;;;;;5054646;28;20040;-65
2022/10/24 02:09:08;;;;;;;14.57;10.55;;;28.60;99.90;;;;;;5054622;28;20424;-66
2022/10/24 02:11:36;;;;;;;17.70;10.93;;;28.60;99.90;;;;;;5055212;28;20027;-65
2022/10/24 02:14:09;;;;;;;16.92;9.93;;;28.80;99.90;;;;;;5055568;28;20048;-65
2022/10/24 02:16:36;;;;;;;18.23;11.23;;;28.80;99.90;;;;;;5055749;28;20449;-64
2022/10/24 02:19:03;;;;;;;14.05;10.23;;;29.00;99.90;;;;;;5055980;28;20028;-63
2022/10/24 02:21:42;;;;;;;16.70;10.50;;;29.00;99.90;;;;;;5055980;28;20021;-64
2022/10/24 02:24:22;;;;;;;14.73;9.07;;;29.00;99.90;;;;;;5056034;28;20067;-63
2022/10/24 02:27:12;;;;;;;13.15;9.40;;;29.20;99.90;;;;;;5055808;28;20029;-63
2022/10/24 02:29:38;;;;;;;12.57;8.50;;;29.20;99.90;;;;;;5052981;28;20371;-63
2022/10/24 02:32:14;;;;;;;13.02;9.05;;;29.20;99.90;;;;;;5055670;28;20025;-63
2022/10/24 02:34:43;;;;;;;17.25;11.05;;;29.30;99.90;;;;;;5055857;28;20052;-64
2022/10/24 02:37:12;;;;;;;11.27;8.15;;;29.40;99.90;;;;;;5055578;28;20052;-63
2022/10/24 02:39:40;;;;;;;16.27;10.65;;;29.30;99.90;;;;;;5055489;28;20052;-62
2022/10/24 02:42:10;;;;;;;18.25;10.27;;;29.40;99.90;;;;;;5055757;28;20021;-62
2022/10/24 02:44:38;;;;;;;13.65;9.23;;;29.40;99.90;;;;;;5055520;28;20099;-63
2022/10/24 02:47:08;;;;;;;12.13;9.05;;;29.40;99.90;;;;;;5055516;28;20032;-65
2022/10/24 02:49:34;;;;;;;17.80;10.48;;;29.50;99.90;;;;;;5055523;28;20029;-63
2022/10/24 02:52:02;;;;;;;13.50;9.90;;;29.40;99.90;;;;;;5055430;28;20118;-63
2022/10/24 02:54:28;;;;;;;17.48;11.48;;;29.50;99.90;;;;;;5055703;28;20108;-67
2022/10/24 02:57:00;;;;;;;19.45;11.55;;;29.50;99.90;;;;;;5055347;28;20504;-65
2022/10/24 02:59:26;;;;;;;;;;;29.50;99.90;;;;;;5055501;28;20033;-65
2022/10/24 03:01:53;;;;;;;18.42;12.82;;;29.60;99.90;;;;;;5055323;28;19911;-65
2022/10/24 03:04:20;;;;;;;22.08;13.57;;;29.60;99.90;;;;;;5055267;28;20032;-65
2022/10/24 03:06:46;;;;;;;22.00;17.00;;;29.70;99.90;;;;;;5055139;28;20061;-65
2022/10/24 03:09:13;;;;;;;26.27;16.45;;;29.60;99.90;;;;;;5055083;28;20029;-64
2022/10/24 03:11:40;;;;;;;27.08;15.25;;;29.70;99.90;;;;;;5055041;28;20020;-65
2022/10/24 03:14:07;;;;;;;29.77;15.63;;;29.70;99.90;;;;;;5054941;28;20032;-65
2022/10/24 03:16:33;;;;;;;26.23;16.95;;;29.80;99.90;;;;;;5055082;28;20025;-66
2022/10/24 03:19:00;;;;;;;23.65;14.82;;;29.90;99.90;;;;;;5054915;28;20021;-66
2022/10/24 03:21:26;;;;;;;24.83;15.57;;;30.00;99.90;;;;;;5054995;28;20021;-67
2022/10/24 03:23:53;;;;;;;27.45;17.20;;;30.00;99.90;;;;;;5054760;28;20045;-66
2022/10/24 03:26:20;;;;;;;23.65;16.00;;;30.10;99.90;;;;;;5054789;28;20022;-62
2022/10/24 03:28:46;;;;;;;24.88;15.50;;;30.20;99.90;;;;;;5054647;28;20049;-66
2022/10/24 03:31:13;;;;;;;26.98;16.80;;;30.20;99.90;;;;;;5054722;28;20086;-66
2022/10/24 03:33:39;;;;;;;23.80;14.18;;;30.20;99.90;;;;;;5054656;28;20033;-67
2022/10/24 03:36:06;;;;;;;24.98;14.23;;;30.30;99.90;;;;;;5054494;28;20074;-65
2022/10/24 03:38:32;;;;;;;21.88;13.20;;;30.40;99.90;;;;;;5054239;28;20398;-65
2022/10/24 03:40:59;;;;;;;22.33;11.50;;;30.50;99.90;;;;;;5054582;28;20036;-66
2022/10/24 03:43:25;;;;;;;17.80;12.05;;;30.60;99.90;;;;;;5054401;28;20017;-65
2022/10/24 03:45:52;;;;;;;18.42;12.32;;;30.80;99.90;;;;;;5042176;28;20057;-66
2022/10/24 03:48:18;;;;;;;23.60;15.48;;;30.90;99.90;;;;;;5023519;28;20033;-65
2022/10/24 03:50:45;;;;;;;18.73;13.05;;;31.10;99.90;;;;;;5014935;28;20026;-64
2022/10/24 03:53:11;;;;;;;23.88;14.40;;;31.00;99.90;;;;;;5014892;28;20038;-66
2022/10/24 03:55:38;;;;;;;22.52;13.13;;;31.00;99.90;;;;;;5014589;28;20556;-66
2022/10/24 03:58:05;;;;;;;20.20;12.52;;;31.20;99.90;;;;;;5014503;28;20041;-69
2022/10/24 04:00:37;;;;;;;19.27;12.88;;;31.20;99.90;;;;;;5022383;28;20025;-66
2022/10/24 04:03:04;;;;;;;21.52;11.93;;;31.10;99.90;;;;;;5015397;28;20083;-66
2022/10/24 04:05:30;;;;;;;14.73;9.07;;;31.00;99.90;;;;;;5014380;28;20032;-60
2022/10/24 04:07:57;;;;;;;14.48;9.38;;;31.10;99.90;;;;;;5014354;28;20168;-60
2022/10/24 04:10:23;;;;;;;16.40;9.98;;;31.10;99.90;;;;;;5029564;28;20056;-64
2022/10/24 04:12:50;;;;;;;15.57;8.85;;;31.20;99.90;;;;;;5033867;28;20049;-66
2022/10/24 04:15:17;;;;;;;9.05;7.57;;;31.40;99.90;;;;;;5033996;28;20045;-65
2022/10/24 04:17:43;;;;;;;11.70;7.60;;;31.50;99.90;;;;;;5034102;28;20363;-65
2022/10/24 04:20:10;;;;;;;8.57;7.32;;;31.40;99.90;;;;;;5033887;28;20037;-61
2022/10/24 04:22:37;;;;;;;11.27;7.93;;;31.20;99.90;;;;;;5033739;28;20029;-63
2022/10/24 04:25:04;;;;;;;12.55;8.80;;;31.10;99.90;;;;;;5024774;28;20020;-65
2022/10/24 04:27:31;;;;;;;10.25;8.23;;;31.30;99.90;;;;;;5014157;28;20157;-66
2022/10/24 04:29:57;;;;;;;9.75;7.18;;;31.40;99.90;;;;;;5013877;28;20034;-66
2022/10/24 04:32:24;;;;;;;12.85;8.20;;;31.40;99.90;;;;;;5033216;28;20029;-66
2022/10/24 04:34:50;;;;;;;8.73;7.10;;;31.60;99.90;;;;;;5033955;28;20026;-66
2022/10/24 04:37:17;;;;;;;11.77;7.35;;;31.70;99.90;;;;;;5033488;28;20029;-64
2022/10/24 04:39:43;;;;;;;7.72;6.45;;;31.80;99.90;;;;;;5033656;28;20490;-66
2022/10/24 04:42:10;;;;;;;11.02;6.97;;;31.90;99.90;;;;;;5033510;28;20029;-66
2022/10/24 04:44:36;;;;;;;10.00;6.57;;;31.80;99.90;;;;;;5033473;28;20022;-66
2022/10/24 04:49:48;;;;;;;10.80;6.72;;;31.80;99.90;;;;;;5033674;28;20037;-65
2022/10/24 04:52:14;;;;;;;8.93;7.70;;;31.70;99.90;;;;;;5033281;28;20108;-62
2022/10/24 04:54:41;;;;;;;17.75;8.27;;;31.70;99.90;;;;;;5033455;28;20029;-63
2022/10/24 04:57:07;;;;;;;9.90;7.35;;;31.60;99.90;;;;;;5033355;28;20036;-68
2022/10/24 04:59:34;;;;;;;8.68;6.50;;;31.60;99.90;;;;;;5033195;28;20053;-61
2022/10/24 05:02:00;;;;;;;14.50;7.35;;;31.60;99.90;;;;;;5033318;28;20025;-60
2022/10/24 05:04:27;;;;;;;17.65;9.57;;;31.60;99.90;;;;;;5033134;28;20032;-65
2022/10/24 05:06:54;;;;;;;15.40;8.13;;;31.60;99.90;;;;;;5033185;28;20397;-65
2022/10/24 05:09:20;;;;;;;22.25;15.20;;;31.70;99.90;;;;;;5033305;28;20056;-66
2022/10/24 05:11:47;;;;;;;78.50;59.67;;;31.60;99.90;;;;;;5033076;28;20025;-58
2022/10/24 05:14:13;;;;;;;33.25;24.83;;;31.50;99.90;;;;;;5033169;28;20112;-67
2022/10/24 05:16:40;;;;;;;26.42;20.27;;;31.40;99.90;;;;;;5033131;28;20017;-69
2022/10/24 05:19:06;;;;;;;12.98;10.25;;;31.30;99.90;;;;;;5032880;28;20032;-68
2022/10/24 05:21:33;;;;;;;32.80;20.98;;;31.20;99.90;;;;;;5032781;28;20466;-65
2022/10/24 05:24:00;;;;;;;15.32;9.55;;;31.30;99.90;;;;;;5033305;28;20462;-66
2022/10/24 05:26:27;;;;;;;21.70;15.77;;;31.30;99.90;;;;;;5033074;28;20018;-66
2022/10/24 05:28:53;;;;;;;14.20;9.50;;;31.30;99.90;;;;;;5032717;28;20363;-67
2022/10/24 05:31:20;;;;;;;11.68;8.20;;;31.30;99.90;;;;;;5019520;28;20033;-67
2022/10/24 05:33:47;;;;;;;101.22;79.10;;;31.40;99.90;;;;;;5025570;28;20105;-66
2022/10/24 05:36:13;;;;;;;15.57;10.07;;;31.40;99.90;;;;;;5023894;28;20025;-68
2022/10/24 05:38:40;;;;;;;15.27;10.07;;;31.40;99.90;;;;;;5032832;28;20030;-67
2022/10/24 05:41:06;;;;;;;14.75;9.50;;;31.30;99.90;;;;;;5029835;28;20072;-62
2022/10/24 05:43:33;;;;;;;13.57;8.43;;;31.20;99.90;;;;;;5032016;28;20071;-63
2022/10/24 05:45:59;;;;;;;18.40;10.40;;;31.10;99.90;;;;;;5032290;28;20493;-67
2022/10/24 05:48:26;;;;;;;15.20;11.52;;;30.90;99.90;;;;;;5031955;28;20041;-65
2022/10/24 05:50:56;;;;;;;37.67;23.75;;;30.90;99.90;;;;;;5031644;28;20029;-65
2022/10/24 05:53:24;;;;;;;25.25;20.45;;;30.90;99.90;;;;;;5029930;28;20116;-64
2022/10/24 05:55:51;;;;;;;34.38;24.95;;;30.80;99.90;;;;;;5031855;28;20018;-67
2022/10/24 05:58:20;;;;;;;57.95;33.13;;;30.70;99.90;;;;;;5031545;28;20025;-66
2022/10/24 06:00:48;;;;;;;378.67;232.27;;;30.70;99.90;;;;;;5031531;28;20025;-58
2022/10/24 06:03:14;;;;;;;48.33;22.48;;;30.70;99.90;;;;;;5033750;28;20091;-63
2022/10/24 06:05:41;;;;;;;20.40;12.02;;;30.70;99.90;;;;;;5034983;28;20092;-65
2022/10/24 06:08:08;;;;;;;17.15;11.57;;;30.60;99.90;;;;;;5034645;28;20064;-63
2022/10/24 06:10:34;;;;;;;602.00;287.60;;;30.50;99.90;;;;;;5034870;28;20049;-63
2022/10/24 06:13:01;;;;;;;24.27;12.82;;;30.50;99.90;;;;;;5034414;28;20537;-66
2022/10/24 06:15:28;;;;;;;18.00;10.18;;;30.50;99.90;;;;;;5034177;28;20028;-58
2022/10/24 06:17:54;;;;;;;15.75;9.23;;;30.40;99.90;;;;;;5034104;28;20037;-62
2022/10/24 06:20:21;;;;;;;16.95;8.45;;;30.00;99.90;;;;;;5034408;28;20032;-64
2022/10/24 06:22:48;;;;;;;13.70;8.35;;;29.70;99.90;;;;;;5034158;28;20437;-62
2022/10/24 06:25:16;;;;;;;14.07;8.32;;;29.60;99.90;;;;;;5034307;28;20048;-58
2022/10/24 06:27:43;;;;;;;12.88;7.95;;;29.60;99.90;;;;;;5029250;28;20364;-64
2022/10/24 06:30:10;;;;;;;16.85;9.45;;;29.70;99.90;;;;;;5025675;28;20486;-62
2022/10/24 06:32:38;;;;;;;17.00;9.15;;;29.90;99.90;;;;;;5032179;28;20095;-63
2022/10/24 06:35:05;;;;;;;20.70;11.75;;;29.90;99.90;;;;;;5032595;28;20083;-63
2022/10/24 06:37:32;;;;;;;16.33;10.90;;;29.90;99.90;;;;;;5031693;28;20030;-67
2022/10/24 06:39:59;;;;;;;19.85;12.45;;;29.90;99.90;;;;;;5033065;28;20053;-66
2022/10/24 06:42:26;;;;;;;22.02;13.65;;;30.00;99.90;;;;;;5031321;28;20022;-67
2022/10/24 06:44:52;;;;;;;30.58;17.80;;;30.00;99.90;;;;;;5033604;28;20021;-67
2022/10/24 06:47:19;;;;;;;20.50;13.88;;;30.00;99.90;;;;;;5033644;28;20060;-66
2022/10/24 06:49:45;;;;;;;17.30;12.43;;;30.00;99.90;;;;;;5030093;28;20056;-66
2022/10/24 06:52:12;;;;;;;21.05;12.70;;;30.00;99.90;;;;;;5034146;28;20029;-66
2022/10/24 06:54:42;;;;;;;17.30;11.85;;;30.00;99.90;;;;;;5033508;28;20026;-67
2022/10/24 06:57:09;;;;;;;24.90;13.95;;;30.10;99.90;;;;;;5031584;28;20030;-60
2022/10/24 06:59:36;;;;;;;33.15;18.65;;;30.30;99.90;;;;;;5033369;28;20092;-63
2022/10/24 07:02:02;;;;;;;32.58;18.63;;;30.30;99.90;;;;;;5033192;28;20078;-67
2022/10/24 07:04:29;;;;;;;41.58;20.30;;;30.30;99.90;;;;;;5033335;28;20164;-63
2022/10/24 07:06:56;;;;;;;43.00;20.33;;;30.40;99.90;;;;;;5033529;28;20478;-65
2022/10/24 07:09:23;;;;;;;33.25;18.75;;;30.40;99.90;;;;;;5033062;28;20089;-65
2022/10/24 07:11:49;;;;;;;32.17;16.75;;;30.40;99.90;;;;;;5033996;28;20029;-63
2022/10/24 07:14:16;;;;;;;26.98;15.57;;;30.30;99.90;;;;;;5035026;28;20033;-64
2022/10/24 07:16:43;;;;;;;27.60;15.40;;;30.40;99.90;;;;;;5035213;28;20108;-66
2022/10/24 07:19:10;;;;;;;28.10;14.85;;;30.40;99.90;;;;;;5034921;28;20453;-66
2022/10/24 07:21:36;;;;;;;33.58;18.55;;;30.50;99.90;;;;;;5034974;28;20097;-66
2022/10/24 07:24:03;;;;;;;31.20;17.73;;;30.50;99.90;;;;;;5035158;28;20025;-66
2022/10/24 07:26:31;;;;;;;26.35;12.20;;;30.50;99.90;;;;;;5034940;28;20092;-66
2022/10/24 07:28:59;;;;;;;28.55;13.95;;;30.40;99.90;;;;;;5035254;28;20033;-66
2022/10/24 07:31:31;;;;;;;22.30;12.57;;;30.50;99.90;;;;;;5034855;28;20037;-63
2022/10/24 07:33:58;;;;;;;25.73;12.82;;;30.50;99.90;;;;;;5026955;28;20079;-61
2022/10/24 07:36:25;;;;;;;28.95;12.25;;;30.60;99.90;;;;;;5018294;28;20045;-64
2022/10/24 07:38:55;;;;;;;14.75;7.80;;;30.60;99.90;;;;;;5022866;28;20053;-69
2022/10/24 07:41:24;;;;;;;22.13;12.38;;;30.60;99.90;;;;;;5020013;28;20046;-66
2022/10/24 07:43:53;;;;;;;26.60;11.98;;;30.70;99.90;;;;;;5033263;28;20029;-67
2022/10/24 07:46:21;;;;;;;17.45;10.05;;;30.70;99.90;;;;;;5034140;28;20096;-65
2022/10/24 07:48:51;;;;;;;18.95;10.68;;;30.80;99.90;;;;;;5035169;28;20025;-65
2022/10/24 07:51:18;;;;;;;19.42;8.57;;;30.70;99.90;;;;;;5034754;28;20032;-65
2022/10/24 07:53:45;;;;;;;11.20;7.80;;;30.80;99.90;;;;;;5034621;28;20049;-65
2022/10/24 07:56:14;;;;;;;229.32;204.40;;;30.90;99.90;;;;;;5034604;28;20025;-60
2022/10/24 07:58:43;;;;;;;13.65;10.75;;;30.90;99.90;;;;;;5031741;28;20018;-64
2022/10/24 08:01:13;;;;;;;14.43;8.98;;;31.00;99.90;;;;;;5033981;28;20053;-64
2022/10/24 08:03:39;;;;;;;25.60;16.13;;;31.00;99.90;;;;;;5034528;28;20523;-61
2022/10/24 08:06:08;;;;;;;37.33;21.75;;;31.10;99.90;;;;;;5033516;28;20418;-60
2022/10/24 08:08:35;;;;;;;36.33;20.50;;;31.00;99.90;;;;;;5034294;28;20033;-60
2022/10/24 08:11:06;;;;;;;52.58;37.78;;;30.90;99.90;;;;;;5032026;28;20063;-66
2022/10/24 08:13:32;;;;;;;87.30;66.05;;;30.90;99.90;;;;;;5034492;28;20025;-61
2022/10/24 08:15:59;;;;;;;30.70;18.77;;;30.80;99.90;;;;;;5034410;28;20033;-64
2022/10/24 08:18:25;;;;;;;28.30;17.38;;;30.80;99.90;;;;;;5034217;28;20075;-63
2022/10/24 08:21:02;;;;;;;53.08;39.65;;;30.70;99.90;;;;;;5032850;28;20029;-63
2022/10/24 08:23:28;;;;;;;86.20;69.82;;;30.60;99.90;;;;;;5032970;28;20088;-68
2022/10/24 08:25:55;;;;;;;42.17;30.67;;;30.50;99.90;;;;;;5034097;28;20013;-65
2022/10/24 08:28:22;;;;;;;36.25;27.25;;;30.50;99.90;;;;;;5029236;28;20044;-67
2022/10/24 08:31:00;;;;;;;36.22;24.40;;;30.50;99.90;;;;;;5034098;28;20151;-67
2022/10/24 08:33:26;;;;;;;25.38;16.88;;;30.40;99.90;;;;;;5032274;28;20037;-68
2022/10/24 08:35:57;;;;;;;22.73;15.85;;;30.30;99.90;;;;;;5034243;28;20034;-68
2022/10/24 08:38:24;;;;;;;23.35;16.33;;;30.30;99.90;;;;;;5031606;28;20597;-67
2022/10/24 08:40:51;;;;;;;24.50;15.68;;;30.20;99.90;;;;;;5034382;28;20048;-61
2022/10/24 08:43:19;;;;;;;25.42;14.40;;;30.20;99.90;;;;;;5034083;28;20100;-67
2022/10/24 08:45:53;;;;;;;22.30;13.43;;;30.20;99.90;;;;;;5033465;28;20609;-65
2022/10/24 08:48:26;;;;;;;85.28;58.72;;;30.30;99.90;;;;;;5033700;28;20096;-64
2022/10/24 08:51:01;;;;;;;15.50;10.13;;;30.20;99.90;;;;;;5033574;28;20031;-64
2022/10/24 08:53:30;;;;;;;20.88;14.77;;;30.20;99.90;;;;;;5030458;28;20025;-62
2022/10/24 08:56:00;;;;;;;19.98;12.10;;;30.20;99.90;;;;;;5033892;28;20474;-70
2022/10/24 08:58:39;;;;;;;24.10;12.10;;;30.10;99.90;;;;;;5033373;28;20553;-67
2022/10/24 09:01:17;;;;;;;17.60;11.15;;;30.10;99.90;;;;;;5033098;28;20022;-64
2022/10/24 09:03:48;;;;;;;16.67;10.63;;;30.00;99.90;;;;;;5031284;28;20021;-60
2022/10/24 09:06:20;;;;;;;24.70;12.07;;;30.00;99.90;;;;;;5032608;28;20024;-62
2022/10/24 09:08:53;;;;;;;22.75;12.75;;;29.90;99.90;;;;;;5030967;28;20276;-64
2022/10/24 09:12:00;;;;;;;16.98;12.25;;;29.90;99.90;;;;;;5029548;28;20029;-65
2022/10/24 09:14:28;;;;;;;18.08;10.38;;;29.90;99.90;;;;;;4969326;28;20101;-67
2022/10/24 09:17:01;;;;;;;13.32;8.65;;;29.90;99.90;;;;;;4971685;28;20447;-63
2022/10/24 09:19:30;;;;;;;13.25;9.02;;;29.90;99.90;;;;;;4968120;28;20066;-66
2022/10/24 09:22:00;;;;;;;17.52;10.75;;;29.80;99.90;;;;;;4969486;28;20174;-70
2022/10/24 09:24:46;;;;;;;16.95;11.50;;;29.80;99.90;;;;;;4970905;28;20050;-68
2022/10/24 09:27:22;;;;;;;19.13;10.63;;;29.80;99.90;;;;;;4873529;29;20128;-70
2022/10/24 09:29:48;;;;;;;20.40;9.93;;;29.70;99.90;;;;;;4876060;29;20026;-67
2022/10/24 09:32:22;;;;;;;12.90;8.75;;;29.70;99.90;;;;;;4875997;29;20057;-66
2022/10/24 09:34:49;;;;;;;13.45;9.50;;;29.60;99.90;;;;;;4876034;29;20093;-68
2022/10/24 09:37:39;;;;;;;22.92;10.90;;;29.60;99.90;;;;;;4876927;29;20036;-66
2022/10/24 09:40:15;;;;;;;18.60;11.63;;;29.60;99.90;;;;;;4880246;29;20057;-67
2022/10/24 09:42:50;;;;;;;19.85;13.23;;;29.70;99.90;;;;;;4880205;29;20066;-65
2022/10/24 09:45:36;;;;;;;24.05;14.13;;;29.70;99.90;;;;;;4880376;29;20076;-67
2022/10/24 09:48:17;;;;;;;29.88;16.15;;;29.70;99.90;;;;;;4878421;29;20033;-68
2022/10/24 09:50:45;;;;;;;27.25;15.73;;;29.70;99.90;;;;;;4880364;29;20112;-65
2022/10/24 09:53:34;;;;;;;26.33;16.65;;;29.70;99.90;;;;;;4880297;29;20036;-67
2022/10/24 09:56:09;;;;;;;35.65;15.52;;;29.70;99.90;;;;;;4871524;29;20076;-62
2022/10/24 09:58:35;;;;;;;28.35;16.55;;;29.70;99.90;;;;;;4929662;29;20043;-63
2022/10/24 10:01:04;;;;;;;25.60;15.90;;;29.70;99.90;;;;;;4936196;29;20039;-62
2022/10/24 10:03:31;;;;;;;32.95;19.58;;;29.70;99.90;;;;;;4953136;28;20025;-64
2022/10/24 10:06:03;;;;;;;30.95;20.73;;;29.70;99.90;;;;;;5035448;28;20076;-63
2022/10/24 10:08:31;;;;;;;;;;;29.70;99.90;;;;;;5031309;28;20433;-62
2022/10/24 10:11:09;;;;;;;29.02;19.08;;;29.70;99.90;;;;;;5035191;28;19909;-64
2022/10/24 10:13:48;;;;;;;30.13;17.73;;;29.60;99.90;;;;;;5035077;28;20029;-63
2022/10/24 10:16:30;;;;;;;25.73;16.88;;;29.50;99.90;;;;;;5032879;28;20036;-63
2022/10/24 10:19:18;;;;;;;24.02;18.23;;;29.40;99.90;;;;;;5034021;28;20033;-68
2022/10/24 10:22:00;;;;;;;17.85;13.30;;;29.40;99.90;;;;;;5034391;28;20021;-67
2022/10/24 10:24:38;;;;;;;24.77;16.08;;;29.30;99.90;;;;;;5034019;28;20056;-65
2022/10/24 10:27:25;;;;;;;26.42;16.27;;;29.20;99.90;;;;;;5035172;28;20013;-66
2022/10/24 10:30:12;;;;;;;28.42;15.65;;;29.10;99.90;;;;;;5034874;28;20041;-69
2022/10/24 10:32:59;;;;;;;34.53;16.48;;;28.90;99.90;;;;;;5033035;28;20095;-68
2022/10/24 10:35:41;;;;;;;21.92;12.63;;;28.80;99.90;;;;;;4991529;28;20046;-64
2022/10/24 10:38:27;;;;;;;;;;;28.60;99.90;;;;;;4991949;28;20531;-68
2022/10/24 10:41:17;;;;;;;18.67;11.35;;;28.40;99.90;;;;;;4985976;28;20020;-65
2022/10/24 10:43:51;;;;;;;13.27;7.43;;;28.10;99.90;;;;;;4985171;28;20026;-65
2022/10/24 10:46:37;;;;;;;13.05;7.25;;;27.80;99.90;;;;;;4985296;28;20069;-65
2022/10/24 10:49:22;;;;;;;12.98;7.72;;;27.70;99.90;;;;;;4984144;28;20486;-66
2022/10/24 10:51:54;;;;;;;14.60;6.93;;;27.60;99.90;;;;;;4985195;28;20057;-64
2022/10/24 10:54:41;;;;;;;11.00;5.38;;;27.50;99.90;;;;;;4985046;28;20439;-65
2022/10/24 10:57:08;;;;;;;16.13;6.32;;;27.40;99.90;;;;;;4984711;28;20068;-63
2022/10/24 11:00:06;;;;;;;12.23;6.07;;;27.20;99.90;;;;;;4981890;28;20023;-63
2022/10/24 11:03:01;;;;;;;9.88;5.78;;;27.00;99.90;;;;;;4979628;28;20018;-66
2022/10/24 11:05:39;;;;;;;7.72;4.15;;;27.00;99.90;;;;;;4999062;28;20105;-67
2022/10/24 11:08:07;;;;;;;8.48;4.45;;;26.90;99.90;;;;;;5033015;28;20175;-64
2022/10/24 11:10:40;;;;;;;9.25;4.60;;;26.80;99.90;;;;;;5033866;28;20488;-63
2022/10/24 11:13:14;;;;;;;12.40;6.07;;;26.80;99.90;;;;;;5033922;28;20056;-66
2022/10/24 11:15:46;;;;;;;15.23;6.45;;;26.80;99.90;;;;;;5029350;28;20029;-65
2022/10/24 11:18:29;;;;;;;20.88;7.70;;;26.60;99.90;;;;;;5031504;28;20033;-62
2022/10/24 11:21:06;;;;;;;33.60;10.43;;;26.60;99.90;;;;;;5033546;28;20045;-65
2022/10/24 11:23:39;;;;;;;35.97;10.30;;;26.50;99.90;;;;;;5034198;28;20029;-68
2022/10/24 11:26:30;;;;;;;23.73;11.07;;;26.40;99.90;;;;;;5032250;28;20152;-65
2022/10/24 11:29:17;;;;;;;40.92;14.88;;;26.20;99.90;;;;;;4973902;28;20109;-66
2022/10/24 11:31:54;;;;;;;22.52;11.75;;;26.20;99.90;;;;;;4970653;28;20095;-68
2022/10/24 11:34:45;;;;;;;37.08;13.55;;;26.10;99.90;;;;;;4971143;28;20523;-67
2022/10/24 11:37:34;;;;;;;57.97;36.30;;;26.10;99.90;;;;;;4877228;29;20057;-65
2022/10/24 11:40:16;;;;;;;141.98;97.05;;;26.20;99.90;;;;;;4821886;29;20058;-64
2022/10/24 11:42:56;;;;;;;29.85;19.02;;;26.10;99.90;;;;;;4820928;29;20144;-65
2022/10/24 11:45:40;;;;;;;102.72;78.38;;;26.00;99.90;;;;;;4820141;29;20420;-66
2022/10/24 11:48:34;;;;;;;73.65;55.35;;;26.10;99.90;;;;;;4821815;29;20038;-65
2022/10/24 11:51:18;;;;;;;34.95;24.70;;;26.10;99.90;;;;;;4822003;29;20038;-65
2022/10/24 11:53:54;;;;;;;44.55;29.77;;;26.20;99.90;;;;;;4820247;29;20428;-66
2022/10/24 11:56:32;;;;;;;18.38;11.88;;;26.10;99.90;;;;;;4822170;29;20374;-65
2022/10/24 11:59:05;;;;;;;19.83;10.63;;;26.20;99.90;;;;;;4820216;29;20026;-64
2022/10/24 12:01:40;;;;;;;15.50;10.30;;;26.20;99.90;;;;;;4822261;29;20180;-67
2022/10/24 12:04:27;;;;;;;32.97;24.42;;;26.30;99.90;;;;;;4816940;29;20023;-64
2022/10/24 12:06:58;;;;;;;15.85;9.20;;;26.20;99.90;;;;;;4831162;29;20188;-65
2022/10/24 12:09:45;;;;;;;48.83;34.15;;;26.10;99.90;;;;;;4906002;29;20108;-70
2022/10/24 12:12:19;;;;;;;23.92;18.95;;;26.10;99.90;;;;;;4853770;29;20120;-69
2022/10/24 12:15:05;;;;;;;18.60;14.25;;;26.30;99.90;;;;;;4851978;29;20197;-70
2022/10/24 12:17:47;;;;;;;36.20;24.92;;;26.20;99.90;;;;;;4851448;29;20456;-69
2022/10/24 12:20:19;;;;;;;38.20;29.65;;;26.10;99.90;;;;;;4858110;29;20038;-65
2022/10/24 12:22:47;;;;;;;22.58;19.42;;;26.10;99.90;;;;;;4858404;29;20435;-69
2022/10/24 12:25:35;;;;;;;10.02;6.75;;;26.20;99.90;;;;;;4857536;29;20602;-67
2022/10/24 12:28:16;;;;;;;29.38;10.40;;;26.20;99.90;;;;;;4857760;29;20599;-67
2022/10/24 12:31:03;;;;;;;21.27;9.47;;;26.40;99.90;;;;;;4858150;29;20030;-68
2022/10/24 12:33:30;;;;;;;27.45;10.05;;;26.50;99.90;;;;;;4857877;29;20163;-66
2022/10/24 12:35:57;;;;;;;14.45;7.22;;;26.50;99.90;;;;;;4884321;29;20616;-66
2022/10/24 12:38:27;;;;;;;7.40;6.60;;;26.60;99.90;;;;;;4945946;29;20069;-67
2022/10/24 12:41:25;;;;;;;10.10;7.00;;;26.50;99.90;;;;;;4946374;29;20046;-65
2022/10/24 12:44:31;;;;;;;10.35;7.85;;;26.40;99.90;;;;;;5025309;28;20367;-65
2022/10/24 12:46:58;;;;;;;11.02;8.07;;;26.30;99.90;;;;;;4990473;28;20487;-67
2022/10/24 12:49:27;;;;;;;11.63;7.90;;;26.30;99.90;;;;;;4990459;28;20034;-67
2022/10/24 12:51:55;;;;;;;13.55;8.13;;;26.30;99.90;;;;;;4990891;28;20051;-63
2022/10/24 12:54:42;;;;;;;9.90;7.82;;;26.20;99.90;;;;;;4990907;28;20112;-64
2022/10/24 12:57:09;;;;;;;12.45;8.70;;;26.30;99.90;;;;;;4988459;28;20491;-62